Time;durP1;ratioP1;P1;durP2;ratioP2;P2;SDS_P1;SDS_P2;PMS_P1;PMS_P2;Temp;Humidity;BMP_temperature;BMP_pressure;BME280_temperature;BME280_humidity;BME280_pressure;Samples;Min_cycle;Max_cycle;Signal;HPM_P1;HPM_P2
2022/06/11 00:01:08;;;;;;;9.43;5.35;;;17.20;99.90;;;;;;5116701;28;20518;-73
2022/06/11 00:03:34;;;;;;;10.32;5.80;;;17.30;99.90;;;;;;5116923;28;20055;-73
2022/06/11 00:06:00;;;;;;;10.88;6.05;;;17.30;99.90;;;;;;5115244;28;20056;-72
2022/06/11 00:08:26;;;;;;;7.68;6.10;;;17.20;99.90;;;;;;5116697;28;20081;-73
2022/06/11 00:10:52;;;;;;;;;;;17.20;99.90;;;;;;5103148;28;20048;-73
2022/06/11 00:13:22;;;;;;;9.98;5.43;;;17.20;99.90;;;;;;5096377;28;19975;-73
2022/06/11 00:15:52;;;;;;;10.85;6.07;;;17.20;99.90;;;;;;5096121;28;20504;-73
2022/06/11 00:18:19;;;;;;;8.68;5.63;;;17.20;99.90;;;;;;5078310;28;20048;-73
2022/06/11 00:20:44;;;;;;;12.20;6.18;;;17.20;99.90;;;;;;5097120;28;20044;-73
2022/06/11 00:23:11;;;;;;;14.65;7.38;;;17.20;99.90;;;;;;5095937;28;20132;-73
2022/06/11 00:25:36;;;;;;;;;;;17.20;99.90;;;;;;5096196;28;20143;-74
2022/06/11 00:28:04;;;;;;;12.43;6.90;;;17.10;99.90;;;;;;5091981;28;19963;-74
2022/06/11 00:30:30;;;;;;;12.95;7.10;;;17.20;99.90;;;;;;5074899;28;20094;-72
2022/06/11 00:32:56;;;;;;;10.07;6.55;;;17.20;99.90;;;;;;5075754;28;20144;-73
2022/06/11 00:35:24;;;;;;;12.23;6.13;;;17.20;99.90;;;;;;5075594;28;20139;-73
2022/06/11 00:37:50;;;;;;;12.50;5.28;;;17.20;99.90;;;;;;5075368;28;20569;-72
2022/06/11 00:40:38;;;;;;;8.63;5.22;;;17.30;99.90;;;;;;5074962;28;20124;-74
2022/06/11 00:43:06;;;;;;;6.80;5.03;;;17.30;99.90;;;;;;5075496;28;20115;-72
2022/06/11 00:45:46;;;;;;;13.65;5.78;;;17.30;99.90;;;;;;5057864;28;20070;-73
2022/06/11 00:48:35;;;;;;;8.45;5.90;;;17.30;99.90;;;;;;5074968;28;20139;-73
2022/06/11 00:51:11;;;;;;;11.85;7.63;;;17.30;99.90;;;;;;5075097;28;20539;-73
2022/06/11 00:53:37;;;;;;;;;;;17.30;99.90;;;;;;5075883;28;20125;-72
2022/06/11 00:56:10;;;;;;;8.82;6.63;;;17.30;99.90;;;;;;5074249;28;20436;-73
2022/06/11 00:58:38;;;;;;;10.98;6.78;;;17.30;99.90;;;;;;5074313;28;20094;-73
2022/06/11 01:01:06;;;;;;;11.65;6.88;;;17.30;99.90;;;;;;5056896;28;20091;-74
2022/06/11 01:03:35;;;;;;;12.50;6.47;;;17.30;99.90;;;;;;5057269;28;20131;-72
2022/06/11 01:06:25;;;;;;;13.48;7.95;;;17.20;99.90;;;;;;5075053;28;20056;-74
2022/06/11 01:09:15;;;;;;;11.52;7.10;;;17.30;99.90;;;;;;5074641;28;20048;-73
2022/06/11 01:11:41;;;;;;;12.70;8.10;;;17.20;99.90;;;;;;5074708;28;20045;-72
2022/06/11 01:14:19;;;;;;;14.15;8.05;;;17.20;99.90;;;;;;5075078;28;20057;-72
2022/06/11 01:17:18;;;;;;;14.32;8.82;;;17.20;99.90;;;;;;5074896;28;20060;-75
2022/06/11 01:20:03;;;;;;;13.95;8.60;;;17.20;99.90;;;;;;5072003;28;20090;-73
2022/06/11 01:22:51;;;;;;;11.02;7.38;;;17.20;99.90;;;;;;5073700;28;20053;-72
2022/06/11 01:25:34;;;;;;;10.90;8.35;;;17.10;99.90;;;;;;5074668;28;20053;-72
2022/06/11 01:28:21;;;;;;;12.07;8.00;;;17.10;99.90;;;;;;5079292;28;20499;-72
2022/06/11 01:30:54;;;;;;;;;;;17.00;99.90;;;;;;5115384;28;20055;-73
2022/06/11 01:33:37;;;;;;;10.88;6.78;;;17.00;99.90;;;;;;5115144;28;20398;-73
2022/06/11 01:36:05;;;;;;;13.95;6.55;;;17.00;99.90;;;;;;5115022;28;20052;-72
2022/06/11 01:38:57;;;;;;;12.88;7.40;;;16.90;99.90;;;;;;5113111;28;20055;-73
2022/06/11 01:41:42;;;;;;;16.08;7.07;;;16.90;99.90;;;;;;5114845;28;20484;-72
2022/06/11 01:44:18;;;;;;;15.15;7.45;;;16.80;99.90;;;;;;5096996;28;20492;-73
2022/06/11 01:46:46;;;;;;;8.85;6.57;;;16.80;99.90;;;;;;5113107;28;20051;-74
2022/06/11 01:49:20;;;;;;;14.63;6.72;;;16.80;99.90;;;;;;5114693;28;20519;-74
2022/06/11 01:52:04;;;;;;;11.43;6.35;;;16.70;99.90;;;;;;5096436;28;20128;-73
2022/06/11 01:54:36;;;;;;;7.40;4.53;;;16.70;99.90;;;;;;5114693;28;20051;-73
2022/06/11 01:57:15;;;;;;;10.23;4.78;;;16.60;99.90;;;;;;5110409;28;20059;-73
2022/06/11 02:00:01;;;;;;;9.20;4.10;;;16.60;99.90;;;;;;5082273;28;20055;-72
2022/06/11 02:02:37;;;;;;;10.68;3.95;;;16.60;99.90;;;;;;5093306;28;20507;-72
2022/06/11 02:05:22;;;;;;;7.37;3.13;;;16.50;99.90;;;;;;5094285;28;20056;-72
2022/06/11 02:08:05;;;;;;;4.68;2.45;;;16.50;99.90;;;;;;5095164;28;20116;-73
2022/06/11 02:10:44;;;;;;;6.45;2.75;;;16.40;99.90;;;;;;5093805;28;20088;-72
2022/06/11 02:13:21;;;;;;;7.78;2.45;;;16.40;99.90;;;;;;5093791;28;20052;-73
2022/06/11 02:15:58;;;;;;;4.70;2.20;;;16.30;99.90;;;;;;5093674;28;20514;-73
2022/06/11 02:18:26;;;;;;;6.30;2.40;;;16.30;99.90;;;;;;5073587;28;20524;-73
2022/06/11 02:21:00;;;;;;;5.65;2.22;;;16.30;99.90;;;;;;5086617;28;20112;-73
2022/06/11 02:23:51;;;;;;;6.35;2.33;;;16.30;99.90;;;;;;5114286;28;20052;-73
2022/06/11 02:26:23;;;;;;;6.35;2.45;;;16.30;99.90;;;;;;5114040;28;20252;-72
2022/06/11 02:28:51;;;;;;;7.88;2.70;;;16.20;99.90;;;;;;5112989;28;20047;-73
2022/06/11 02:31:23;;;;;;;7.72;2.80;;;16.20;99.90;;;;;;5113131;28;20094;-73
2022/06/11 02:33:50;;;;;;;5.03;2.80;;;16.20;99.90;;;;;;5114153;28;20051;-73
2022/06/11 02:36:22;;;;;;;8.20;3.15;;;16.20;99.90;;;;;;5114112;28;20515;-72
2022/06/11 02:38:48;;;;;;;9.35;4.22;;;16.10;99.90;;;;;;5113935;28;20385;-72
2022/06/11 02:41:18;;;;;;;6.10;4.20;;;16.10;99.90;;;;;;5111979;28;20059;-73
2022/06/11 02:43:44;;;;;;;9.43;4.63;;;16.10;99.90;;;;;;5113751;28;20059;-74
2022/06/11 02:48:55;;;;;;;8.18;4.10;;;16.00;99.90;;;;;;5112035;28;20058;-72
2022/06/11 02:51:23;;;;;;;9.65;4.78;;;16.00;99.90;;;;;;5105121;28;20052;-72
2022/06/11 02:53:50;;;;;;;7.22;4.40;;;15.90;99.90;;;;;;5093428;28;20066;-73
2022/06/11 02:56:16;;;;;;;;;;;15.90;99.90;;;;;;5093736;28;20048;-73
2022/06/11 02:58:42;;;;;;;5.40;3.95;;;15.80;99.90;;;;;;5093184;28;19930;-72
2022/06/11 03:01:09;;;;;;;11.07;4.38;;;15.80;99.90;;;;;;5094125;28;20636;-73
2022/06/11 03:03:36;;;;;;;8.48;3.92;;;15.70;99.90;;;;;;5093499;28;20139;-74
2022/06/11 03:06:02;;;;;;;12.48;5.38;;;15.70;99.90;;;;;;5093367;28;20052;-73
2022/06/11 03:08:29;;;;;;;10.15;5.10;;;15.70;99.90;;;;;;5093384;28;20052;-73
2022/06/11 03:10:54;;;;;;;10.93;5.03;;;15.70;99.90;;;;;;5093126;28;20056;-72
2022/06/11 03:13:21;;;;;;;9.18;5.38;;;15.70;99.90;;;;;;5094124;28;20131;-73
2022/06/11 03:15:47;;;;;;;11.98;5.75;;;15.70;99.90;;;;;;5093374;28;20476;-73
2022/06/11 03:18:13;;;;;;;9.52;5.45;;;15.70;99.90;;;;;;5093279;28;20131;-74
2022/06/11 03:20:39;;;;;;;12.07;5.90;;;15.70;99.90;;;;;;5093287;28;20062;-74
2022/06/11 03:23:06;;;;;;;11.13;5.88;;;15.70;99.90;;;;;;5099744;28;20113;-72
2022/06/11 03:25:32;;;;;;;12.18;6.60;;;15.70;99.90;;;;;;5114932;28;20054;-73
2022/06/11 03:27:58;;;;;;;9.38;6.43;;;15.70;99.90;;;;;;5117100;28;20059;-72
2022/06/11 03:30:25;;;;;;;10.98;7.15;;;15.70;99.90;;;;;;5116935;28;20051;-74
2022/06/11 03:32:52;;;;;;;10.63;8.02;;;15.70;99.90;;;;;;5116171;28;20134;-73
2022/06/11 03:35:18;;;;;;;13.32;7.63;;;15.70;99.90;;;;;;5098799;28;20052;-72
2022/06/11 03:37:44;;;;;;;11.88;8.07;;;15.70;99.90;;;;;;5099099;28;20059;-72
2022/06/11 03:40:10;;;;;;;10.48;7.95;;;15.70;99.90;;;;;;5117353;28;20076;-71
2022/06/11 03:42:36;;;;;;;13.57;8.70;;;15.70;99.90;;;;;;5117138;28;20060;-72
2022/06/11 03:45:03;;;;;;;13.55;8.27;;;15.70;99.90;;;;;;5097365;28;20059;-72
2022/06/11 03:47:29;;;;;;;14.68;8.60;;;15.70;99.90;;;;;;5117328;28;20051;-72
2022/06/11 03:49:54;;;;;;;14.90;9.35;;;15.70;99.90;;;;;;5099106;28;20420;-72
2022/06/11 03:52:22;;;;;;;13.15;9.23;;;15.70;99.90;;;;;;5117237;28;20491;-73
2022/06/11 03:54:48;;;;;;;13.95;8.57;;;15.70;99.90;;;;;;5115218;28;20120;-74
2022/06/11 03:57:15;;;;;;;15.32;9.50;;;15.70;99.90;;;;;;5116925;28;20055;-74
2022/06/11 03:59:41;;;;;;;13.23;9.57;;;15.70;99.90;;;;;;5116655;28;20056;-73
2022/06/11 04:02:07;;;;;;;16.48;10.20;;;15.70;99.90;;;;;;5098996;28;20048;-74
2022/06/11 04:04:33;;;;;;;13.20;9.15;;;15.70;99.90;;;;;;5116699;28;20056;-72
2022/06/11 04:07:00;;;;;;;13.98;8.50;;;15.70;99.90;;;;;;5096215;28;20062;-73
2022/06/11 04:09:37;;;;;;;15.48;8.52;;;15.70;99.90;;;;;;5111944;28;20055;-72
2022/06/11 04:12:09;;;;;;;16.15;8.90;;;15.70;99.90;;;;;;5116627;28;20052;-73
2022/06/11 04:14:35;;;;;;;14.88;8.50;;;15.70;99.90;;;;;;5116858;28;20052;-74
2022/06/11 04:17:08;;;;;;;14.15;7.95;;;15.70;99.90;;;;;;5107522;28;20047;-74
2022/06/11 04:19:38;;;;;;;17.20;8.50;;;15.70;99.90;;;;;;5116591;28;20055;-73
2022/06/11 04:22:05;;;;;;;11.98;7.78;;;16.40;99.90;;;;;;5116429;28;20511;-72
2022/06/11 04:24:32;;;;;;;16.40;9.23;;;15.70;99.90;;;;;;5116258;28;20055;-73
2022/06/11 04:27:00;;;;;;;12.90;8.10;;;15.70;99.90;;;;;;5096455;28;20138;-73
2022/06/11 04:29:31;;;;;;;16.02;8.48;;;15.70;99.90;;;;;;5116171;28;20494;-74
2022/06/11 04:31:59;;;;;;;11.07;8.27;;;15.70;99.90;;;;;;5115930;28;20482;-73
2022/06/11 04:34:25;;;;;;;13.73;7.70;;;15.70;99.90;;;;;;5116281;28;20134;-74
2022/06/11 04:36:52;;;;;;;12.20;8.35;;;15.70;99.90;;;;;;5113594;28;20066;-73
2022/06/11 04:39:22;;;;;;;12.52;8.13;;;15.70;99.90;;;;;;5108164;28;20429;-72
2022/06/11 04:41:48;;;;;;;22.60;9.45;;;15.70;99.90;;;;;;5077578;28;20095;-73
2022/06/11 04:44:14;;;;;;;;;;;15.70;99.90;;;;;;5078263;28;20149;-73
2022/06/11 04:46:41;;;;;;;11.98;7.88;;;15.70;99.90;;;;;;5095572;28;20280;-72
2022/06/11 04:49:08;;;;;;;11.73;7.57;;;15.70;99.90;;;;;;5095258;28;20157;-73
2022/06/11 04:51:35;;;;;;;11.82;7.63;;;15.80;99.90;;;;;;5077286;28;20048;-71
2022/06/11 04:54:01;;;;;;;11.02;6.95;;;15.80;99.90;;;;;;5060998;28;20150;-72
2022/06/11 04:56:28;;;;;;;9.98;7.03;;;15.80;99.90;;;;;;5110453;28;20122;-74
2022/06/11 04:58:55;;;;;;;13.38;6.47;;;15.80;99.90;;;;;;5115959;28;20146;-74
2022/06/11 05:01:21;;;;;;;13.52;7.13;;;15.80;99.90;;;;;;5115571;28;20051;-74
2022/06/11 05:03:47;;;;;;;;;;;15.80;99.90;;;;;;5098209;28;20547;-75
2022/06/11 05:06:19;;;;;;;11.07;5.63;;;15.80;99.90;;;;;;5113979;28;19920;-73
2022/06/11 05:08:45;;;;;;;11.52;5.82;;;15.80;99.90;;;;;;5115571;28;20048;-73
2022/06/11 05:11:10;;;;;;;9.95;5.55;;;15.80;99.90;;;;;;5080149;28;20048;-72
2022/06/11 05:13:37;;;;;;;10.90;6.05;;;15.90;99.90;;;;;;5115670;28;20104;-72
2022/06/11 05:16:04;;;;;;;13.23;5.82;;;15.90;99.90;;;;;;5113497;28;20109;-72
2022/06/11 05:18:30;;;;;;;;;;;15.90;99.90;;;;;;5115893;28;20112;-72
2022/06/11 05:20:56;;;;;;;9.85;6.00;;;15.90;99.90;;;;;;5097279;28;19920;-73
2022/06/11 05:23:22;;;;;;;16.20;5.70;;;16.00;99.90;;;;;;5115288;28;20586;-72
2022/06/11 05:25:48;;;;;;;11.15;5.50;;;16.00;99.90;;;;;;5115103;28;20523;-74
2022/06/11 05:28:18;;;;;;;8.70;5.07;;;16.00;99.90;;;;;;5113471;28;20492;-75
2022/06/11 05:30:45;;;;;;;14.45;5.60;;;16.00;99.90;;;;;;5114613;28;20095;-73
2022/06/11 05:33:11;;;;;;;;;;;16.00;99.90;;;;;;5115559;28;20055;-73
2022/06/11 05:35:37;;;;;;;16.20;5.80;;;16.00;99.90;;;;;;5115160;28;20010;-73
2022/06/11 05:38:05;;;;;;;;;;;16.10;99.90;;;;;;5113583;28;20052;-72
2022/06/11 05:40:35;;;;;;;10.23;3.97;;;16.10;99.90;;;;;;5114889;28;19931;-73
2022/06/11 05:43:01;;;;;;;10.75;4.72;;;16.50;99.90;;;;;;5114979;28;20063;-72
2022/06/11 05:45:29;;;;;;;;;;;16.10;99.90;;;;;;5115415;28;20096;-72
2022/06/11 05:47:57;;;;;;;11.93;4.30;;;16.10;99.90;;;;;;5110922;28;19924;-74
2022/06/11 05:50:28;;;;;;;9.10;4.85;;;16.10;99.90;;;;;;5093574;28;20048;-72
2022/06/11 05:52:56;;;;;;;9.60;5.15;;;16.20;99.90;;;;;;5094256;28;20060;-72
2022/06/11 05:55:26;;;;;;;13.65;4.75;;;16.20;99.90;;;;;;5073079;28;20088;-74
2022/06/11 05:57:54;;;;;;;8.80;4.18;;;16.20;99.90;;;;;;5095311;28;20060;-73
2022/06/11 06:00:24;;;;;;;10.45;3.63;;;16.20;99.90;;;;;;5114343;28;20484;-74
2022/06/11 06:02:49;;;;;;;12.73;3.08;;;16.30;99.90;;;;;;5096679;28;20058;-73
2022/06/11 06:05:19;;;;;;;13.88;3.75;;;16.30;99.90;;;;;;5114463;28;20063;-73
2022/06/11 06:07:45;;;;;;;12.48;3.20;;;16.30;99.90;;;;;;5112484;28;20048;-72
2022/06/11 06:10:12;;;;;;;9.35;3.63;;;16.30;99.90;;;;;;5114277;28;20565;-72
2022/06/11 06:12:38;;;;;;;10.13;3.17;;;16.30;99.90;;;;;;5114409;28;20087;-72
2022/06/11 06:15:06;;;;;;;13.32;3.35;;;16.30;99.90;;;;;;5114340;28;20044;-72
2022/06/11 06:17:32;;;;;;;8.60;2.72;;;16.30;99.90;;;;;;5112178;28;20097;-72
2022/06/11 06:19:58;;;;;;;11.93;2.90;;;16.30;99.90;;;;;;5113610;28;20606;-74
2022/06/11 06:22:24;;;;;;;10.95;3.28;;;16.30;99.90;;;;;;5114104;28;20052;-72
2022/06/11 06:24:49;;;;;;;10.52;3.22;;;16.30;99.90;;;;;;5096305;28;20087;-72
2022/06/11 06:27:15;;;;;;;13.40;3.63;;;16.30;99.90;;;;;;5114104;28;20047;-72
2022/06/11 06:29:41;;;;;;;10.60;2.92;;;16.40;99.90;;;;;;5091922;28;20059;-74
2022/06/11 06:32:07;;;;;;;14.23;2.70;;;16.40;99.90;;;;;;5065824;28;20420;-71
2022/06/11 06:34:32;;;;;;;10.65;2.75;;;16.40;99.90;;;;;;5071938;28;20053;-72
2022/06/11 06:36:58;;;;;;;7.90;2.38;;;16.50;99.90;;;;;;5072330;28;20049;-72
2022/06/11 06:39:24;;;;;;;6.80;2.97;;;16.50;99.90;;;;;;5071462;28;20052;-71
2022/06/11 06:41:49;;;;;;;11.55;4.30;;;16.50;99.90;;;;;;5073073;28;20055;-72
2022/06/11 06:44:16;;;;;;;10.82;4.38;;;16.50;99.90;;;;;;5073366;28;20139;-72
2022/06/11 06:46:42;;;;;;;13.70;3.70;;;16.50;99.90;;;;;;5072321;28;20064;-74
2022/06/11 06:49:08;;;;;;;10.45;2.83;;;16.60;99.90;;;;;;5073331;28;20045;-72
2022/06/11 06:51:34;;;;;;;11.15;3.08;;;16.70;99.90;;;;;;5071377;28;20532;-74
2022/06/11 06:54:00;;;;;;;12.27;3.83;;;16.70;99.90;;;;;;5073091;28;20125;-72
2022/06/11 06:56:31;;;;;;;13.50;3.03;;;16.60;99.90;;;;;;5073240;28;20070;-72
2022/06/11 06:58:57;;;;;;;10.32;3.47;;;16.60;99.90;;;;;;5073213;28;20110;-72
2022/06/11 07:01:26;;;;;;;14.50;3.65;;;16.70;99.90;;;;;;5069917;28;20057;-72
2022/06/11 07:03:52;;;;;;;12.57;3.00;;;16.70;99.90;;;;;;5073121;28;20139;-72
2022/06/11 07:06:18;;;;;;;9.52;3.17;;;16.80;99.90;;;;;;5073048;28;20098;-73
2022/06/11 07:08:44;;;;;;;13.43;4.28;;;16.80;99.90;;;;;;5072874;28;20056;-74
2022/06/11 07:11:09;;;;;;;12.07;3.58;;;17.00;99.90;;;;;;5073094;28;20485;-72
2022/06/11 07:13:35;;;;;;;11.10;3.08;;;17.00;99.90;;;;;;5056768;28;20049;-71
2022/06/11 07:16:04;;;;;;;10.70;3.72;;;17.00;99.90;;;;;;5052951;28;20053;-72
2022/06/11 07:18:37;;;;;;;17.70;2.83;;;17.10;99.90;;;;;;5065531;28;20091;-71
2022/06/11 07:21:06;;;;;;;13.23;3.58;;;17.10;99.90;;;;;;5054828;28;20049;-73
2022/06/11 07:23:38;;;;;;;16.27;3.60;;;17.10;99.90;;;;;;5072725;28;20496;-72
2022/06/11 07:26:10;;;;;;;10.63;3.53;;;17.20;99.90;;;;;;5072905;28;20060;-74
2022/06/11 07:28:40;;;;;;;13.98;3.83;;;17.20;99.90;;;;;;5070881;28;20127;-73
2022/06/11 07:31:05;;;;;;;12.23;3.40;;;17.20;99.90;;;;;;5076501;28;20060;-72
2022/06/11 07:33:31;;;;;;;9.98;3.65;;;17.30;99.90;;;;;;5072751;28;20545;-71
2022/06/11 07:35:57;;;;;;;14.48;3.60;;;17.20;99.90;;;;;;5072602;28;20524;-73
2022/06/11 07:38:24;;;;;;;15.48;3.50;;;17.30;99.90;;;;;;5070953;28;20075;-72
2022/06/11 07:40:50;;;;;;;14.85;4.18;;;17.40;99.90;;;;;;5065383;28;20060;-71
2022/06/11 07:43:16;;;;;;;11.82;3.28;;;17.40;99.90;;;;;;5072678;28;20053;-72
2022/06/11 07:45:44;;;;;;;10.38;3.33;;;17.50;99.90;;;;;;5071531;28;20532;-73
2022/06/11 07:48:11;;;;;;;12.27;3.28;;;17.50;99.90;;;;;;5055325;28;20063;-71
2022/06/11 07:50:40;;;;;;;12.38;3.20;;;17.50;99.90;;;;;;5072484;28;20493;-72
2022/06/11 07:53:08;;;;;;;11.65;2.58;;;17.50;99.90;;;;;;5072766;28;20055;-73
2022/06/11 07:55:35;;;;;;;9.43;3.17;;;17.50;99.90;;;;;;5069638;28;20455;-71
2022/06/11 07:58:01;;;;;;;11.57;3.28;;;17.50;99.90;;;;;;5071537;28;20056;-73
2022/06/11 08:00:30;;;;;;;9.75;2.88;;;17.50;99.90;;;;;;5072460;28;20098;-72
2022/06/11 08:02:56;;;;;;;13.75;3.53;;;17.60;99.90;;;;;;5072509;28;20053;-72
2022/06/11 08:05:22;;;;;;;14.27;4.18;;;17.70;99.90;;;;;;5070620;28;20394;-73
2022/06/11 08:07:48;;;;;;;;;;;17.60;99.90;;;;;;5073076;28;20053;-72
2022/06/11 08:10:15;;;;;;;9.38;3.53;;;17.80;99.90;;;;;;5066139;28;19920;-73
2022/06/11 08:12:41;;;;;;;11.05;3.70;;;17.80;99.90;;;;;;5065303;28;20147;-72
2022/06/11 08:15:08;;;;;;;17.52;3.47;;;17.80;99.90;;;;;;5089981;28;20273;-74
2022/06/11 08:17:34;;;;;;;12.70;3.22;;;17.80;99.90;;;;;;5074831;28;20060;-72
2022/06/11 08:20:01;;;;;;;10.93;2.92;;;17.90;99.90;;;;;;5075846;28;20404;-73
2022/06/11 08:22:27;;;;;;;10.30;3.53;;;17.90;99.90;;;;;;5074937;28;20061;-74
2022/06/11 08:24:53;;;;;;;11.80;3.30;;;18.00;99.90;;;;;;5074464;28;20056;-73
2022/06/11 08:27:18;;;;;;;10.00;3.40;;;18.00;99.90;;;;;;5074756;28;20059;-73
2022/06/11 08:29:45;;;;;;;15.32;3.17;;;18.10;99.90;;;;;;5094139;28;20423;-72
2022/06/11 08:32:10;;;;;;;15.80;3.25;;;18.10;99.90;;;;;;5116259;28;20134;-72
2022/06/11 08:34:43;;;;;;;18.60;4.10;;;18.10;99.90;;;;;;5116102;28;20082;-72
2022/06/11 08:37:09;;;;;;;15.45;3.78;;;18.10;99.90;;;;;;5089226;28;20051;-72
2022/06/11 08:39:36;;;;;;;9.88;3.55;;;18.20;99.90;;;;;;5102868;28;20123;-74
2022/06/11 08:42:03;;;;;;;12.27;3.40;;;18.30;99.90;;;;;;5095792;28;20095;-72
2022/06/11 08:44:33;;;;;;;9.60;3.08;;;18.30;99.90;;;;;;5077657;28;20048;-72
2022/06/11 08:47:04;;;;;;;16.05;3.40;;;18.40;99.90;;;;;;5078918;28;20058;-75
2022/06/11 08:49:53;;;;;;;9.43;3.03;;;18.40;99.90;;;;;;5077486;28;20550;-74
2022/06/11 08:52:24;;;;;;;11.27;3.30;;;18.50;99.90;;;;;;5094926;28;20055;-74
2022/06/11 08:54:51;;;;;;;15.50;3.22;;;18.50;99.90;;;;;;5077690;28;20056;-72
2022/06/11 08:57:40;;;;;;;20.50;3.30;;;18.50;99.90;;;;;;5094903;28;20052;-73
2022/06/11 09:00:28;;;;;;;13.00;2.75;;;18.60;99.90;;;;;;5094891;28;20139;-72
2022/06/11 09:03:12;;;;;;;11.25;3.05;;;18.60;99.90;;;;;;5094257;28;20054;-73
2022/06/11 09:05:51;;;;;;;10.50;2.90;;;18.70;99.90;;;;;;5097744;28;20139;-73
2022/06/11 09:08:43;;;;;;;9.00;3.20;;;18.70;99.90;;;;;;5113409;28;20052;-72
2022/06/11 09:11:11;;;;;;;17.23;4.15;;;18.80;99.90;;;;;;5115674;28;20557;-73
2022/06/11 09:14:09;;;;;;;11.77;3.30;;;18.80;99.90;;;;;;5097287;28;20051;-74
2022/06/11 09:16:41;;;;;;;10.20;2.90;;;18.90;99.90;;;;;;5003172;28;20054;-72
2022/06/11 09:19:09;;;;;;;14.85;3.85;;;18.90;99.90;;;;;;5005568;28;20060;-73
2022/06/11 09:21:41;;;;;;;13.25;3.47;;;18.90;99.90;;;;;;5011790;28;20054;-73
2022/06/11 09:24:38;;;;;;;12.13;3.67;;;18.90;99.90;;;;;;5005315;28;20120;-73
2022/06/11 09:27:12;;;;;;;12.65;3.45;;;18.90;99.90;;;;;;4954140;29;20500;-74
2022/06/11 09:29:49;;;;;;;18.15;3.22;;;19.00;99.90;;;;;;4936718;29;20115;-73
2022/06/11 09:48:59;;;;;;;10.60;2.50;;;19.10;99.90;;;;;;4944657;28;20043;-73
2022/06/11 09:51:50;;;;;;;16.77;3.25;;;19.20;99.90;;;;;;4956786;28;20425;-73
2022/06/11 09:54:28;;;;;;;12.68;3.28;;;19.20;99.90;;;;;;5017277;28;20064;-75
2022/06/11 09:57:32;;;;;;;35.55;3.67;;;19.20;99.90;;;;;;5031531;28;20057;-74
2022/06/11 10:00:05;;;;;;;14.18;3.10;;;19.30;99.90;;;;;;4998988;28;20053;-74
2022/06/11 10:02:58;;;;;;;12.18;2.50;;;19.30;99.90;;;;;;5011898;28;20112;-75
2022/06/11 10:05:31;;;;;;;11.70;2.67;;;19.40;99.90;;;;;;5048826;28;20045;-74
2022/06/11 10:08:11;;;;;;;8.98;2.50;;;19.40;99.90;;;;;;5053669;28;20049;-75
2022/06/11 10:10:45;;;;;;;13.57;2.85;;;19.50;99.90;;;;;;5090422;28;20056;-75
2022/06/11 10:13:40;;;;;;;10.40;2.80;;;19.50;99.90;;;;;;5093690;28;20147;-73
2022/06/11 10:16:34;;;;;;;11.13;2.70;;;19.60;99.90;;;;;;5093090;28;20056;-72
2022/06/11 10:19:23;;;;;;;9.48;2.83;;;19.60;99.90;;;;;;5030777;28;20500;-73
2022/06/11 10:21:58;;;;;;;13.20;2.20;;;19.50;99.90;;;;;;4995068;28;20050;-73
2022/06/11 10:24:27;;;;;;;9.63;2.33;;;19.50;99.90;;;;;;4992135;28;20414;-72
2022/06/11 10:27:06;;;;;;;11.77;2.85;;;19.50;99.90;;;;;;5010820;28;20057;-72
2022/06/11 10:29:52;;;;;;;9.88;1.88;;;19.50;99.90;;;;;;5026582;28;20406;-72
2022/06/11 10:32:22;;;;;;;9.05;2.72;;;19.50;99.90;;;;;;5035819;28;20053;-73
2022/06/11 10:35:00;;;;;;;8.57;1.77;;;19.50;99.90;;;;;;5030265;28;20088;-74
2022/06/11 10:37:43;;;;;;;11.82;2.30;;;19.50;99.90;;;;;;5014592;28;20080;-75
2022/06/11 10:40:08;;;;;;;6.43;2.28;;;19.50;99.90;;;;;;5049453;28;20045;-73
2022/06/11 10:42:52;;;;;;;6.55;1.75;;;19.60;99.90;;;;;;5034506;28;20072;-75
2022/06/11 10:45:18;;;;;;;9.15;2.28;;;19.60;99.90;;;;;;5050931;28;20556;-71
2022/06/11 10:47:48;;;;;;;8.48;1.67;;;19.80;99.90;;;;;;5034265;28;20123;-72
2022/06/11 10:50:13;;;;;;;6.93;1.48;;;19.80;99.90;;;;;;5044007;28;20080;-71
2022/06/11 10:52:54;;;;;;;8.13;1.85;;;19.90;99.90;;;;;;5033984;28;20433;-72
2022/06/11 10:55:58;;;;;;;8.95;1.77;;;19.90;99.90;;;;;;5036620;28;20053;-72
2022/06/11 10:58:33;;;;;;;7.82;1.50;;;19.90;99.90;;;;;;5052751;28;20382;-73
2022/06/11 11:01:05;;;;;;;8.85;1.95;;;19.90;99.90;;;;;;5064225;28;20053;-73
2022/06/11 11:03:57;;;;;;;5.43;1.73;;;19.90;99.90;;;;;;5034718;28;20053;-74
2022/06/11 11:06:29;;;;;;;8.52;1.92;;;19.90;99.90;;;;;;5035311;28;20098;-74
2022/06/11 11:09:02;;;;;;;7.22;1.25;;;19.90;99.90;;;;;;5052849;28;20068;-73
2022/06/11 11:11:37;;;;;;;10.95;1.73;;;19.90;99.90;;;;;;5056174;28;20052;-72
2022/06/11 11:14:14;;;;;;;8.67;1.47;;;19.90;99.90;;;;;;5084660;28;20066;-73
2022/06/11 11:16:40;;;;;;;8.07;1.50;;;19.90;99.90;;;;;;5093079;28;20139;-71
2022/06/11 11:19:19;;;;;;;9.85;1.75;;;20.00;99.90;;;;;;5075067;28;20063;-73
2022/06/11 11:21:56;;;;;;;17.35;2.40;;;20.00;99.90;;;;;;5059022;28;20074;-73
2022/06/11 11:24:33;;;;;;;11.57;1.60;;;20.00;99.90;;;;;;5052538;28;20096;-72
2022/06/11 11:27:13;;;;;;;;;;;20.00;99.90;;;;;;5059501;28;20110;-72
2022/06/11 11:29:52;;;;;;;3.08;1.50;;;20.10;99.90;;;;;;5084816;28;19920;-72
2022/06/11 11:32:37;;;;;;;9.30;1.50;;;20.10;99.90;;;;;;5092739;28;20412;-73
2022/06/11 11:35:36;;;;;;;8.43;1.23;;;20.10;99.90;;;;;;5091751;28;20087;-71
2022/06/11 11:38:13;;;;;;;5.97;1.45;;;20.10;99.90;;;;;;5089930;28;20058;-71
2022/06/11 11:40:48;;;;;;;9.23;1.58;;;20.20;99.90;;;;;;5092763;28;20052;-71
2022/06/11 11:43:16;;;;;;;10.70;1.73;;;20.20;99.90;;;;;;5080739;28;20099;-71
2022/06/11 11:45:46;;;;;;;9.23;1.80;;;20.20;99.90;;;;;;5052490;28;20206;-73
2022/06/11 11:48:22;;;;;;;6.65;1.23;;;20.20;99.90;;;;;;5056359;28;20053;-71
2022/06/11 11:50:50;;;;;;;18.13;3.83;;;20.20;99.90;;;;;;5056100;28;20053;-72
2022/06/11 11:53:29;;;;;;;7.50;1.60;;;20.30;99.90;;;;;;5066415;28;20505;-72
2022/06/11 11:56:00;;;;;;;8.85;2.47;;;20.30;99.90;;;;;;5072105;28;20057;-72
2022/06/11 11:58:45;;;;;;;10.50;1.85;;;20.30;99.90;;;;;;5082555;28;20051;-73
2022/06/11 12:01:16;;;;;;;4.53;1.40;;;20.30;99.90;;;;;;5074869;28;20061;-72
2022/06/11 12:03:47;;;;;;;5.75;1.88;;;20.30;99.90;;;;;;5083945;28;20057;-71
2022/06/11 12:06:25;;;;;;;6.45;1.40;;;20.30;99.90;;;;;;5069327;28;20056;-71
2022/06/11 12:08:53;;;;;;;6.75;1.67;;;20.30;99.90;;;;;;5073764;28;20125;-72
2022/06/11 12:11:33;;;;;;;8.48;2.10;;;20.40;99.90;;;;;;5074172;28;20053;-73
2022/06/11 12:14:10;;;;;;;9.98;2.45;;;20.40;99.90;;;;;;5095919;28;20059;-73
2022/06/11 12:16:39;;;;;;;7.93;1.75;;;20.40;99.90;;;;;;5084818;28;20063;-71
2022/06/11 12:19:20;;;;;;;8.75;2.13;;;20.50;99.90;;;;;;5075458;28;20405;-72
2022/06/11 12:21:58;;;;;;;9.93;2.00;;;20.50;99.90;;;;;;5074781;28;20071;-73
2022/06/11 12:24:26;;;;;;;7.03;1.77;;;20.50;99.90;;;;;;5075622;28;20052;-71
2022/06/11 12:27:00;;;;;;;5.82;1.42;;;20.50;99.90;;;;;;5072863;28;20057;-72
2022/06/11 12:29:39;;;;;;;6.88;1.60;;;20.50;99.90;;;;;;5084442;28;20064;-71
2022/06/11 12:32:20;;;;;;;4.57;1.83;;;20.50;99.90;;;;;;5095833;28;20471;-72
2022/06/11 12:34:46;;;;;;;9.98;2.42;;;20.50;99.90;;;;;;5095833;28;20079;-72
2022/06/11 12:37:12;;;;;;;;;;;20.50;99.90;;;;;;5096118;28;20060;-71
2022/06/11 12:40:00;;;;;;;9.13;2.03;;;20.60;99.90;;;;;;5094811;28;19920;-71
2022/06/11 12:42:41;;;;;;;12.23;2.58;;;20.60;99.90;;;;;;5093267;28;20056;-72
2022/06/11 12:45:18;;;;;;;11.82;2.22;;;20.60;99.90;;;;;;5092884;28;20077;-73
2022/06/11 12:48:06;;;;;;;4.55;1.77;;;20.50;99.90;;;;;;5095578;28;20063;-73
2022/06/11 12:50:41;;;;;;;;;;;20.50;99.90;;;;;;5095513;28;20617;-73
2022/06/11 12:53:40;;;;;;;7.15;2.25;;;20.50;99.90;;;;;;5095473;28;20065;-73
2022/06/11 12:56:16;;;;;;;6.10;2.00;;;20.50;99.90;;;;;;5095248;28;20056;-71
2022/06/11 12:59:01;;;;;;;;;;;20.60;99.90;;;;;;5094688;28;20055;-73
2022/06/11 13:01:43;;;;;;;5.47;1.40;;;20.70;99.90;;;;;;5095107;28;19943;-73
2022/06/11 13:04:27;;;;;;;7.22;2.33;;;20.70;99.90;;;;;;5094152;28;20136;-72
2022/06/11 13:07:14;;;;;;;5.38;1.67;;;20.70;99.90;;;;;;5092216;28;20052;-73
2022/06/11 13:10:17;;;;;;;9.68;1.90;;;20.70;99.90;;;;;;5088139;28;20058;-72
2022/06/11 13:12:59;;;;;;;9.45;2.33;;;20.80;99.90;;;;;;5081401;28;20044;-73
2022/06/11 13:15:35;;;;;;;6.40;1.60;;;20.90;99.90;;;;;;5094788;28;20508;-72
2022/06/11 13:18:28;;;;;;;7.47;1.75;;;20.90;99.90;;;;;;5094748;28;20078;-73
2022/06/11 13:21:05;;;;;;;12.35;2.70;;;20.90;99.90;;;;;;5094366;28;20205;-72
2022/06/11 13:23:46;;;;;;;10.48;2.13;;;20.90;99.90;;;;;;5077286;28;20064;-71
2022/06/11 13:26:15;;;;;;;7.85;2.65;;;20.90;99.90;;;;;;5094476;28;20145;-73
2022/06/11 13:29:25;;;;;;;6.55;1.52;;;20.90;99.90;;;;;;5094965;28;20125;-71
2022/06/11 13:32:15;;;;;;;6.80;1.70;;;20.80;99.90;;;;;;5075065;28;20040;-72